Time;durP1;ratioP1;P1;durP2;ratioP2;P2;SDS_P1;SDS_P2;PMS_P1;PMS_P2;Temp;Humidity;BMP_temperature;BMP_pressure;BME280_temperature;BME280_humidity;BME280_pressure;Samples;Min_cycle;Max_cycle;Signal;HPM_P1;HPM_P2
2023/02/01 00:01:22;;;;;;;20.00;9.30;;;;;;;0.98;100.00;98911.50;105274;1263;60603;-74
2023/02/01 00:03:51;;;;;;;13.00;8.40;;;;;;;1.01;100.00;98914.48;105285;1267;61146;-71
2023/02/01 00:06:19;;;;;;;11.80;7.30;;;;;;;1.05;100.00;98911.24;104765;1266;70848;-71
2023/02/01 00:08:54;;;;;;;9.10;8.00;;;;;;;1.11;100.00;98910.83;105499;1263;69094;-73
2023/02/01 00:11:23;;;;;;;12.80;6.70;;;;;;;1.17;100.00;98902.00;104869;1261;559248;-75
2023/02/01 00:13:51;;;;;;;8.10;5.60;;;;;;;1.23;100.00;98895.02;105727;1256;61122;-69
2023/02/01 00:16:25;;;;;;;9.80;7.60;;;;;;;1.27;100.00;98894.42;105235;1258;61987;-69
2023/02/01 00:19:13;;;;;;;10.30;7.10;;;;;;;1.33;100.00;98895.95;105164;1261;71542;-68
2023/02/01 00:21:43;;;;;;;9.50;7.50;;;;;;;1.39;100.00;98893.89;105191;1262;68008;-71
2023/02/01 00:24:12;;;;;;;9.30;7.00;;;;;;;1.41;100.00;98892.00;105318;1262;74571;-70
2023/02/01 00:26:42;;;;;;;9.00;7.10;;;;;;;1.41;100.00;98889.52;105372;1263;59690;-72
2023/02/01 00:29:18;;;;;;;13.40;8.50;;;;;;;1.40;100.00;98891.06;105343;1261;59568;-71
2023/02/01 00:31:46;;;;;;;11.00;7.80;;;;;;;1.39;100.00;98892.83;105348;1261;74270;-76
2023/02/01 00:34:15;;;;;;;8.70;6.40;;;;;;;1.35;100.00;98890.00;105107;1264;68214;-69
2023/02/01 00:36:45;;;;;;;8.40;6.40;;;;;;;1.35;100.00;98887.02;105123;1261;70800;-75
2023/02/01 00:39:13;;;;;;;13.10;7.30;;;;;;;1.35;100.00;98888.41;105840;1257;61153;-78
2023/02/01 00:41:41;;;;;;;11.80;7.50;;;;;;;1.36;100.00;98881.06;106500;1257;59771;-74
2023/02/01 00:44:09;;;;;;;8.90;7.20;;;;;;;1.38;100.00;98884.72;105747;1261;73531;-75
2023/02/01 00:46:38;;;;;;;14.30;7.60;;;;;;;1.40;100.00;98884.63;105519;1263;67601;-74
2023/02/01 00:49:07;;;;;;;9.20;6.40;;;;;;;1.40;100.00;98883.55;105663;1261;72642;-75
2023/02/01 00:51:35;;;;;;;11.70;6.90;;;;;;;1.36;100.00;98887.05;105075;1261;62761;-75
2023/02/01 00:54:05;;;;;;;11.00;7.70;;;;;;;1.32;100.00;98890.05;105255;1257;60324;-75
2023/02/01 00:56:33;;;;;;;7.20;5.70;;;;;;;1.31;100.00;98891.75;105753;1263;72930;-75
2023/02/01 00:59:01;;;;;;;10.40;7.00;;;;;;;1.31;100.00;98893.80;105498;1263;66922;-73
2023/02/01 01:01:30;;;;;;;9.20;7.40;;;;;;;1.33;100.00;98892.95;105559;1272;73974;-74
2023/02/01 01:03:59;;;;;;;12.00;8.70;;;;;;;1.33;100.00;98894.09;105160;1261;59752;-75
2023/02/01 01:06:29;;;;;;;9.50;6.90;;;;;;;1.34;100.00;98893.30;105122;1258;62079;-68
2023/02/01 01:09:01;;;;;;;14.60;8.00;;;;;;;1.32;100.00;98893.52;105063;1259;73981;-72
2023/02/01 01:11:32;;;;;;;12.60;7.50;;;;;;;1.29;100.00;98896.55;105564;1264;66461;-71
2023/02/01 01:14:00;;;;;;;12.50;5.70;;;;;;;1.27;100.00;98894.92;105722;1261;72205;-72
2023/02/01 01:16:30;;;;;;;10.90;7.10;;;;;;;1.27;100.00;98897.38;105178;1262;61832;-71
2023/02/01 01:18:58;;;;;;;10.70;5.80;;;;;;;1.26;100.00;98896.75;105185;1260;61352;-74
2023/02/01 01:21:27;;;;;;;8.60;5.70;;;;;;;1.27;100.00;98897.52;105607;1264;72601;-70
2023/02/01 01:23:55;;;;;;;10.20;6.50;;;;;;;1.28;100.00;98896.43;105084;1263;67249;-71
2023/02/01 01:26:26;;;;;;;12.60;6.40;;;;;;;1.27;100.00;98901.44;105203;1263;73684;-73
2023/02/01 01:28:56;;;;;;;8.40;6.00;;;;;;;1.25;100.00;98896.15;105090;1264;59736;-72
2023/02/01 01:31:25;;;;;;;8.10;6.50;;;;;;;1.20;100.00;98897.42;105454;1263;59661;-74
2023/02/01 01:33:54;;;;;;;10.00;6.10;;;;;;;1.16;100.00;98894.55;105361;1263;73046;-73
2023/02/01 01:36:23;;;;;;;13.80;7.50;;;;;;;1.13;100.00;98895.29;105195;1257;68629;-74
2023/02/01 01:38:52;;;;;;;7.00;6.10;;;;;;;1.11;100.00;98896.55;105688;1262;72459;-72
2023/02/01 01:41:22;;;;;;;8.20;4.80;;;;;;;1.13;100.00;98894.44;105217;1258;61438;-72
2023/02/01 01:43:54;;;;;;;7.40;6.00;;;;;;;1.12;100.00;98895.91;105542;1263;61887;-74
2023/02/01 01:46:28;;;;;;;11.40;6.30;;;;;;;1.10;100.00;98897.59;105576;1257;72128;-74
2023/02/01 01:49:01;;;;;;;8.80;6.10;;;;;;;1.08;100.00;98895.19;105454;1258;69461;-74
2023/02/01 01:51:30;;;;;;;9.00;6.20;;;;;;;1.07;100.00;98891.15;105391;1258;74757;-72
2023/02/01 01:54:19;;;;;;;9.30;5.80;;;;;;;1.03;100.00;98889.90;105389;1262;61057;-72
2023/02/01 01:56:50;;;;;;;15.50;6.10;;;;;;;1.01;100.00;98893.52;105456;1260;59535;-73
2023/02/01 01:59:20;;;;;;;10.50;5.80;;;;;;;1.00;100.00;98890.09;105644;1259;72895;-75
2023/02/01 02:01:49;;;;;;;8.90;5.60;;;;;;;1.03;100.00;98886.66;105740;1258;67608;-74
2023/02/01 02:04:20;;;;;;;7.60;5.00;;;;;;;1.06;100.00;98879.70;105577;1258;72656;-74
2023/02/01 02:07:11;;;;;;;8.50;4.90;;;;;;;1.07;100.00;98878.31;104693;1256;1002994;-75
2023/02/01 02:09:39;;;;;;;9.20;5.90;;;;;;;1.08;100.00;98870.90;105567;1264;60518;-74
2023/02/01 02:12:15;;;;;;;11.20;5.80;;;;;;;1.10;100.00;98871.20;105436;1261;73961;-75
2023/02/01 02:14:43;;;;;;;10.10;6.10;;;;;;;1.09;100.00;98871.16;105568;1257;68727;-75
2023/02/01 02:17:34;;;;;;;10.50;5.70;;;;;;;1.08;100.00;98871.52;105478;1263;72143;-74
2023/02/01 02:20:33;;;;;;;9.00;6.90;;;;;;;1.06;100.00;98874.09;105449;1257;63090;-73
2023/02/01 02:23:22;;;;;;;10.70;6.00;;;;;;;1.07;100.00;98871.96;105581;1258;61838;-75
2023/02/01 02:26:06;;;;;;;6.50;5.40;;;;;;;1.11;100.00;98869.77;105682;1258;72198;-74
2023/02/01 02:28:40;;;;;;;12.90;5.10;;;;;;;1.16;100.00;98865.26;104962;1261;1002950;-74
2023/02/01 02:31:21;;;;;;;13.10;6.80;;;;;;;1.17;100.00;98861.83;105553;1261;74533;-75
2023/02/01 02:34:01;;;;;;;8.80;6.10;;;;;;;1.18;99.93;98860.36;105093;1262;60293;-73
2023/02/01 02:36:48;;;;;;;11.60;7.10;;;;;;;1.16;99.82;98860.86;105620;1257;62211;-72
2023/02/01 02:39:35;;;;;;;10.60;7.10;;;;;;;1.13;99.72;98857.37;105591;1262;73874;-72
2023/02/01 02:48:44;;;;;;;11.60;8.20;;;;;;;1.16;99.76;98859.66;105688;1262;59671;-72
2023/02/01 03:05:37;;;;;;;10.90;8.60;;;;;;;1.28;99.35;98862.16;105598;1259;60290;-74
2023/02/01 03:08:45;;;;;;;12.70;8.10;;;;;;;1.26;99.27;98860.11;105454;1264;73852;-74
2023/02/01 03:11:14;;;;;;;16.90;7.20;;;;;;;1.26;99.44;98859.92;105101;1268;68420;-72
2023/02/01 03:14:00;;;;;;;14.50;8.50;;;;;;;1.32;99.49;98860.55;105513;1257;72509;-74
2023/02/01 03:16:49;;;;;;;15.60;9.50;;;;;;;1.38;99.48;98868.88;105492;1264;61108;-73
2023/02/01 03:19:37;;;;;;;14.60;10.20;;;;;;;1.42;99.20;98867.88;105406;1263;60899;-74
2023/02/01 03:22:07;;;;;;;19.40;9.10;;;;;;;1.41;98.86;98864.95;105543;1258;73156;-74
2023/02/01 03:24:43;;;;;;;18.30;10.30;;;;;;;1.37;98.54;98868.59;105746;1258;69741;-72
2023/02/01 03:27:23;;;;;;;20.30;11.30;;;;;;;1.33;98.52;98864.29;105686;1261;72174;-72
2023/02/01 03:30:10;;;;;;;15.00;9.80;;;;;;;1.29;98.80;98857.75;105601;1258;62566;-72
2023/02/01 03:35:33;;;;;;;19.10;11.50;;;;;;;1.26;98.93;98857.67;105551;1257;74427;-71
2023/02/01 03:38:08;;;;;;;21.20;11.30;;;;;;;1.27;99.02;98860.56;105245;1261;66971;-72
2023/02/01 03:40:39;;;;;;;18.80;12.10;;;;;;;1.26;99.06;98861.13;105242;1264;73492;-70
2023/02/01 03:43:07;;;;;;;16.40;11.80;;;;;;;1.26;98.97;98853.67;105684;1263;59610;-72
2023/02/01 03:45:40;;;;;;;18.70;12.00;;;;;;;1.29;99.05;98857.59;105480;1258;61166;-73
2023/02/01 03:48:09;;;;;;;22.00;11.60;;;;;;;1.28;98.70;98856.86;107872;1257;71661;-72
2023/02/01 03:50:38;;;;;;;20.70;12.50;;;;;;;1.24;98.74;98852.64;108068;1257;68106;-73
2023/02/01 03:53:08;;;;;;;20.40;11.80;;;;;;;1.21;98.75;98853.01;105642;1257;73038;-72
2023/02/01 03:55:36;;;;;;;19.80;12.80;;;;;;;1.19;98.94;98851.69;105733;1261;59719;-72
2023/02/01 03:58:11;;;;;;;18.00;12.30;;;;;;;1.17;98.91;98856.66;105348;1257;60656;-77
2023/02/01 04:00:40;;;;;;;17.00;11.60;;;;;;;1.11;98.70;98855.20;105394;1263;74533;-73
2023/02/01 04:03:08;;;;;;;17.30;13.40;;;;;;;1.03;98.82;98853.13;105537;1260;69707;-72
2023/02/01 04:05:36;;;;;;;13.70;11.20;;;;;;;1.00;99.36;98852.58;105711;1257;72662;-72
2023/02/01 04:08:06;;;;;;;23.90;14.90;;;;;;;1.01;99.64;98853.70;105588;1261;61455;-74
2023/02/01 04:10:37;;;;;;;20.70;12.10;;;;;;;0.99;99.74;98859.30;105727;1260;60153;-73
2023/02/01 04:13:05;;;;;;;21.20;14.10;;;;;;;0.98;99.94;98853.39;105671;1264;72594;-74
2023/02/01 04:15:34;;;;;;;22.70;14.50;;;;;;;0.97;99.91;98853.02;105617;1262;68138;-73
2023/02/01 04:18:03;;;;;;;16.90;12.20;;;;;;;0.98;100.00;98853.42;105492;1257;73790;-72
2023/02/01 04:20:31;;;;;;;21.10;13.90;;;;;;;0.97;100.00;98856.23;105608;1258;62411;-75
2023/02/01 04:23:02;;;;;;;24.50;16.80;;;;;;;0.93;100.00;98861.44;105401;1261;61000;-74
2023/02/01 04:25:31;;;;;;;24.40;14.70;;;;;;;0.90;100.00;98865.52;105453;1257;73623;-73
2023/02/01 04:27:59;;;;;;;29.20;16.30;;;;;;;0.93;100.00;98865.45;105397;1258;68871;-73
2023/02/01 04:30:29;;;;;;;25.30;15.90;;;;;;;0.92;100.00;98868.27;105298;1262;73526;-71
2023/02/01 04:32:57;;;;;;;20.80;13.40;;;;;;;0.93;100.00;98861.55;105642;1257;60492;-72
2023/02/01 04:35:29;;;;;;;21.10;13.90;;;;;;;0.95;100.00;98864.56;105272;1257;62009;-73
2023/02/01 04:37:58;;;;;;;24.20;15.00;;;;;;;0.96;100.00;98861.98;105636;1261;75814;-71
2023/02/01 04:40:28;;;;;;;25.80;15.50;;;;;;;0.98;100.00;98864.90;105687;1257;68863;-72
2023/02/01 04:42:56;;;;;;;22.60;16.40;;;;;;;0.99;100.00;98861.95;105024;1258;73736;-73
2023/02/01 04:45:24;;;;;;;24.00;13.90;;;;;;;0.98;100.00;98862.30;105249;1258;62453;-71
2023/02/01 04:47:53;;;;;;;28.20;18.60;;;;;;;0.98;100.00;98858.14;105225;1257;61461;-70
2023/02/01 04:50:21;;;;;;;23.90;14.50;;;;;;;1.01;100.00;98858.96;105303;1261;75121;-72
2023/02/01 04:52:50;;;;;;;21.20;14.20;;;;;;;1.06;100.00;98859.67;105276;1257;68692;-70
2023/02/01 04:55:18;;;;;;;20.20;12.70;;;;;;;1.13;100.00;98858.95;105374;1261;74265;-73
2023/02/01 04:57:46;;;;;;;21.70;15.00;;;;;;;1.15;100.00;98859.56;105618;1264;60463;-72
2023/02/01 05:00:15;;;;;;;27.70;15.90;;;;;;;1.11;100.00;98859.21;105728;1258;61180;-70
2023/02/01 05:02:44;;;;;;;23.30;16.40;;;;;;;1.08;100.00;98861.02;105269;1261;74675;-73
2023/02/01 05:05:12;;;;;;;26.20;16.30;;;;;;;1.04;100.00;98862.63;105259;1259;67872;-72
2023/02/01 05:07:40;;;;;;;24.50;14.80;;;;;;;1.02;100.00;98858.82;105220;1262;72487;-71
2023/02/01 05:10:09;;;;;;;27.40;15.20;;;;;;;1.01;100.00;98862.55;105184;1257;61751;-74
2023/02/01 05:15:24;;;;;;;25.40;16.00;;;;;;;1.04;100.00;98859.92;105612;1258;74026;-72
2023/02/01 05:17:52;;;;;;;23.50;14.50;;;;;;;1.03;100.00;98856.63;105028;1261;68332;-72
2023/02/01 05:20:20;;;;;;;20.50;14.00;;;;;;;1.05;100.00;98858.41;105672;1257;74220;-71
2023/02/01 05:22:49;;;;;;;24.30;14.80;;;;;;;1.04;100.00;98860.86;105274;1262;61459;-73
2023/02/01 05:25:49;;;;;;;18.70;14.60;;;;;;;1.03;100.00;98861.15;105163;1257;61131;-71
2023/02/01 05:28:17;;;;;;;22.20;15.20;;;;;;;1.01;100.00;98859.64;105310;1260;75758;-73
2023/02/01 05:30:45;;;;;;;27.00;17.40;;;;;;;1.01;100.00;98858.36;105246;1258;70104;-73
2023/02/01 05:33:14;;;;;;;26.90;15.90;;;;;;;1.00;100.00;98857.17;105550;1261;74365;-71
2023/02/01 05:35:42;;;;;;;26.00;17.30;;;;;;;1.01;100.00;98855.23;105076;1258;61628;-73
2023/02/01 05:38:10;;;;;;;24.00;17.20;;;;;;;1.02;100.00;98849.49;105221;1257;62231;-72
2023/02/01 05:40:39;;;;;;;27.10;16.20;;;;;;;1.04;100.00;98848.41;105349;1258;74348;-72
2023/02/01 05:43:07;;;;;;;37.00;17.40;;;;;;;1.02;100.00;98849.67;108966;1257;68599;-74
2023/02/01 05:45:36;;;;;;;31.40;18.10;;;;;;;1.02;100.00;98851.61;108993;1257;73629;-72
2023/02/01 09:15:53;;;;;;;30.70;17.20;;;;;;;1.61;96.38;98754.15;103187;1288;600103;-80
2023/02/01 09:18:22;;;;;;;22.30;12.60;;;;;;;1.60;95.86;98753.15;105505;1259;59898;-81
2023/02/01 09:20:50;;;;;;;20.90;13.10;;;;;;;1.61;95.15;98750.61;105503;1259;59332;-82
2023/02/01 09:23:20;;;;;;;17.90;12.00;;;;;;;1.64;94.77;98744.31;105392;1264;72083;-83
2023/02/01 09:25:51;;;;;;;18.70;11.50;;;;;;;1.72;94.26;98740.62;105467;1261;69170;-80
2023/02/01 09:28:19;;;;;;;20.10;11.00;;;;;;;1.80;92.43;98738.48;104941;1264;582755;-84
2023/02/01 09:30:47;;;;;;;25.40;13.30;;;;;;;1.90;92.02;98738.11;105850;1260;61032;-84
2023/02/01 09:33:17;;;;;;;23.30;12.60;;;;;;;2.00;91.79;98731.06;105689;1260;61491;-90
2023/02/01 09:35:45;;;;;;;23.10;12.90;;;;;;;2.14;91.56;98727.85;105823;1261;73800;-84
2023/02/01 09:38:14;;;;;;;18.40;9.80;;;;;;;2.28;90.01;98728.67;105589;1263;68213;-81
2023/02/01 09:40:45;;;;;;;19.20;12.20;;;;;;;2.40;88.59;98719.38;105745;1261;71813;-82
2023/02/01 09:43:51;;;;;;;21.90;11.70;;;;;;;2.46;86.77;98709.99;105582;1264;59745;-82
2023/02/01 09:46:22;;;;;;;23.60;10.20;;;;;;;2.55;85.90;98704.42;105291;1257;60743;-81
2023/02/01 09:48:53;;;;;;;11.80;8.30;;;;;;;2.62;83.94;98704.51;105525;1261;72126;-84
2023/02/01 09:51:24;;;;;;;16.90;8.50;;;;;;;2.65;81.77;98698.29;105672;1258;67654;-85
2023/02/01 09:54:17;;;;;;;13.00;7.00;;;;;;;2.73;81.88;98697.96;105513;1257;71168;-81
2023/02/01 09:56:50;;;;;;;17.50;11.80;;;;;;;2.85;79.87;98701.84;105181;1257;59744;-84
2023/02/01 09:59:30;;;;;;;12.80;8.00;;;;;;;2.94;79.17;98702.09;105713;1261;59762;-81
2023/02/01 10:01:59;;;;;;;15.00;9.20;;;;;;;2.99;78.08;98682.45;105361;1258;71103;-82
2023/02/01 10:04:28;;;;;;;16.80;10.60;;;;;;;3.06;78.81;98681.48;105279;1259;67587;-84
2023/02/01 10:06:57;;;;;;;19.10;9.90;;;;;;;3.16;78.09;98681.77;105761;1261;72056;-89
2023/02/01 10:09:32;;;;;;;14.60;9.10;;;;;;;3.18;76.50;98680.38;105464;1259;61518;-86
2023/02/01 10:12:22;;;;;;;15.30;8.20;;;;;;;3.19;76.27;98679.92;105776;1260;59595;-88
2023/02/01 10:15:33;;;;;;;16.60;8.20;;;;;;;3.22;74.09;98691.41;105280;1259;73243;-89
2023/02/01 10:18:24;;;;;;;13.30;9.00;;;;;;;3.24;73.04;98682.22;105215;1257;67404;-85
2023/02/01 10:20:57;;;;;;;16.80;8.90;;;;;;;3.23;72.30;98674.87;105648;1257;71749;-81
2023/02/01 10:23:42;;;;;;;15.70;9.80;;;;;;;3.24;72.25;98672.08;105474;1256;59649;-83
2023/02/01 10:26:39;;;;;;;17.10;11.20;;;;;;;3.23;72.12;98682.84;105591;1257;60570;-81
2023/02/01 10:29:15;;;;;;;21.30;11.10;;;;;;;3.21;72.35;98679.82;105581;1259;73253;-88
2023/02/01 10:31:44;;;;;;;13.10;8.70;;;;;;;3.17;72.14;98675.83;105658;1261;68781;-83
2023/02/01 10:34:18;;;;;;;19.90;10.30;;;;;;;3.10;72.56;98669.75;105835;1257;70288;-84
2023/02/01 10:36:55;;;;;;;14.60;8.70;;;;;;;3.06;72.75;98671.64;105767;1262;60897;-90
2023/02/01 10:39:23;;;;;;;14.00;9.50;;;;;;;3.06;72.78;98667.16;105769;1257;61572;-86
2023/02/01 10:41:51;;;;;;;15.20;7.90;;;;;;;3.07;72.27;98666.16;105611;1257;73805;-84
2023/02/01 10:44:24;;;;;;;14.60;7.20;;;;;;;3.07;71.91;98673.59;105608;1257;67890;-90
2023/02/01 10:46:52;;;;;;;13.90;6.70;;;;;;;3.03;69.88;98670.38;105230;1262;70578;-80
2023/02/01 10:49:41;;;;;;;9.40;6.80;;;;;;;2.97;69.75;98665.77;105871;1262;59631;-82
2023/02/01 10:52:31;;;;;;;8.20;6.60;;;;;;;2.91;70.63;98663.20;105763;1261;60062;-86
2023/02/01 10:55:25;;;;;;;15.30;8.90;;;;;;;2.84;71.41;98663.83;105763;1260;73362;-87
2023/02/01 10:57:55;;;;;;;;;;;;;;;2.77;71.90;98648.52;105554;1261;67200;-82
2023/02/01 11:00:24;;;;;;;13.20;7.80;;;;;;;2.73;72.42;98654.80;105830;1257;71665;-85
2023/02/01 11:02:54;;;;;;;9.30;7.90;;;;;;;2.66;72.19;98646.66;105637;1257;59666;-85
2023/02/01 11:05:23;;;;;;;18.30;8.50;;;;;;;2.54;72.70;98655.73;105768;1262;59561;-80
2023/02/01 11:07:54;;;;;;;15.80;6.70;;;;;;;2.43;72.88;98644.92;106170;1256;73130;-84
2023/02/01 11:10:35;;;;;;;14.30;9.30;;;;;;;2.35;73.54;98641.55;106538;1257;66764;-84
2023/02/01 11:13:04;;;;;;;7.90;6.50;;;;;;;2.35;74.12;98646.65;106347;1262;71696;-82
2023/02/01 11:15:32;;;;;;;12.00;7.40;;;;;;;2.33;74.29;98655.98;106614;1256;61185;-76
2023/02/01 11:18:14;;;;;;;12.20;7.60;;;;;;;2.28;73.86;98653.35;106357;1257;59561;-78
2023/02/01 11:20:43;;;;;;;7.20;5.90;;;;;;;2.23;74.43;98646.88;107211;1255;73094;-84
2023/02/01 11:23:14;;;;;;;9.80;6.90;;;;;;;2.16;75.32;98641.55;106644;1257;66195;-76
2023/02/01 11:25:57;;;;;;;8.50;6.60;;;;;;;2.12;76.56;98656.75;106712;1256;73262;-75
2023/02/01 11:28:33;;;;;;;12.70;7.90;;;;;;;2.03;78.10;98648.27;106648;1258;59173;-78
2023/02/01 11:31:04;;;;;;;13.50;7.50;;;;;;;1.99;79.00;98645.06;106909;1257;59547;-73
2023/02/01 11:33:35;;;;;;;13.40;7.30;;;;;;;1.94;79.82;98643.77;106038;1261;73396;-71
2023/02/01 11:36:20;;;;;;;10.40;7.40;;;;;;;1.95;80.48;98641.20;106341;1256;68515;-75
2023/02/01 11:39:09;;;;;;;11.60;7.20;;;;;;;1.97;81.13;98633.45;106540;1261;72127;-79
2023/02/01 11:41:44;;;;;;;22.80;9.10;;;;;;;1.93;82.04;98628.81;106147;1256;59820;-77
2023/02/01 11:44:21;;;;;;;16.50;9.40;;;;;;;1.89;82.73;98623.02;105863;1256;60005;-77
2023/02/01 11:46:49;;;;;;;15.10;7.80;;;;;;;1.90;83.01;98623.46;105990;1260;70634;-77
2023/02/01 11:49:25;;;;;;;13.40;8.40;;;;;;;1.89;83.34;98627.17;106221;1257;66666;-76
2023/02/01 11:52:37;;;;;;;11.20;8.20;;;;;;;1.93;83.42;98619.76;106449;1260;72375;-73
2023/02/01 11:55:33;;;;;;;11.20;6.50;;;;;;;1.96;83.71;98623.04;106136;1270;60804;-74
2023/02/01 11:58:27;;;;;;;14.70;7.70;;;;;;;1.98;84.13;98615.83;106332;1256;59744;-80
2023/02/01 12:01:26;;;;;;;9.20;6.50;;;;;;;1.96;85.69;98620.73;106000;1261;73151;-75
2023/02/01 12:04:00;;;;;;;10.50;7.50;;;;;;;1.88;86.49;98617.64;106383;1256;65727;-75
2023/02/01 12:06:37;;;;;;;8.70;5.60;;;;;;;1.83;87.28;98615.38;105980;1257;70369;-77
2023/02/01 12:09:25;;;;;;;14.60;8.00;;;;;;;1.72;88.33;98607.89;106013;1262;61120;-78
2023/02/01 12:12:06;;;;;;;12.90;7.10;;;;;;;1.67;89.27;98610.00;106253;1256;59645;-83
2023/02/01 12:15:15;;;;;;;8.90;7.00;;;;;;;1.63;90.51;98606.41;106761;1257;73514;-77
2023/02/01 12:17:55;;;;;;;12.30;8.80;;;;;;;1.59;91.17;98608.92;107287;1257;66884;-82
2023/02/01 12:20:32;;;;;;;;;;;;;;;1.55;92.23;98607.98;106816;1258;70537;-74
2023/02/01 12:23:21;;;;;;;15.40;8.70;;;;;;;1.49;93.19;98603.81;106324;1257;61235;-75
2023/02/01 12:25:53;;;;;;;10.10;7.80;;;;;;;1.46;94.02;98601.31;106134;1260;59828;-75
2023/02/01 12:28:56;;;;;;;15.60;9.10;;;;;;;1.44;94.88;98593.42;106463;1260;72761;-74
2023/02/01 12:31:53;;;;;;;17.10;9.40;;;;;;;1.43;95.97;98594.09;106429;1260;66853;-73
2023/02/01 12:34:50;;;;;;;16.50;9.80;;;;;;;1.43;96.46;98597.84;105952;1261;71918;-79
2023/02/01 12:37:36;;;;;;;12.20;9.10;;;;;;;1.46;96.97;98596.70;106042;1257;62257;-77
2023/02/01 12:40:19;;;;;;;14.30;8.00;;;;;;;1.48;97.34;98594.77;106929;1259;60947;-81
2023/02/01 12:43:10;;;;;;;15.80;8.00;;;;;;;1.52;97.82;98593.77;106538;1262;72940;-77
2023/02/01 12:45:49;;;;;;;13.90;8.70;;;;;;;1.49;98.30;98592.20;106809;1257;68416;-78
2023/02/01 12:48:29;;;;;;;16.10;10.40;;;;;;;1.50;98.61;98591.20;107253;1257;72320;-79
2023/02/01 12:51:09;;;;;;;10.30;7.20;;;;;;;1.49;98.84;98591.30;105221;1261;60824;-72
2023/02/01 12:53:43;;;;;;;15.00;8.50;;;;;;;1.45;99.22;98590.31;105330;1262;59528;-73
2023/02/01 12:56:20;;;;;;;18.40;8.20;;;;;;;1.42;99.76;98586.92;105739;1260;71262;-69
2023/02/01 12:59:00;;;;;;;13.70;8.80;;;;;;;1.42;99.96;98587.09;105394;1262;67637;-70
2023/02/01 13:01:39;;;;;;;16.70;10.20;;;;;;;1.43;100.00;98587.40;105399;1258;73493;-70
2023/02/01 13:04:19;;;;;;;16.40;11.30;;;;;;;1.48;100.00;98590.09;105351;1260;59689;-75
2023/02/01 13:07:12;;;;;;;14.80;9.90;;;;;;;1.53;100.00;98587.92;105379;1263;60624;-69
2023/02/01 13:09:51;;;;;;;16.00;8.90;;;;;;;1.53;99.99;98588.50;105382;1262;71719;-67
2023/02/01 13:12:30;;;;;;;15.00;8.40;;;;;;;1.48;100.00;98589.88;105625;1260;67394;-69
2023/02/01 13:15:21;;;;;;;12.70;8.10;;;;;;;1.43;100.00;98584.92;106186;1257;72257;-88
2023/02/01 13:17:53;;;;;;;14.00;10.40;;;;;;;1.40;100.00;98585.67;106814;1256;59555;-71
2023/02/01 13:20:26;;;;;;;16.00;10.00;;;;;;;1.38;100.00;98584.96;106331;1262;59645;-75
2023/02/01 13:22:59;;;;;;;16.80;10.90;;;;;;;1.42;100.00;98587.17;106048;1257;71745;-79
2023/02/01 13:25:30;;;;;;;9.20;6.20;;;;;;;1.45;100.00;98584.98;106303;1256;66571;-76
2023/02/01 13:28:04;;;;;;;16.50;10.90;;;;;;;1.40;100.00;98583.11;106152;1262;72874;-75
2023/02/01 13:30:47;;;;;;;;;;;;;;;1.34;100.00;98584.68;106399;1261;59741;-77
2023/02/01 13:33:35;;;;;;;17.70;9.20;;;;;;;1.36;100.00;98580.78;105953;1257;61399;-74
2023/02/01 13:36:31;;;;;;;12.70;10.40;;;;;;;1.39;100.00;98578.54;105343;1261;71615;-80
2023/02/01 13:39:33;;;;;;;19.80;10.50;;;;;;;1.37;100.00;98574.54;106048;1258;68612;-78
2023/02/01 13:42:03;;;;;;;17.00;10.80;;;;;;;1.34;100.00;98577.48;105655;1261;71617;-88
2023/02/01 17:45:39;;;;;;;33.30;22.10;;;;;;;1.00;100.00;98663.95;104316;1289;600333;-79
2023/02/01 17:48:07;;;;;;;32.90;24.60;;;;;;;1.01;100.00;98663.58;105969;1269;60963;-77
2023/02/01 17:50:39;;;;;;;33.30;23.30;;;;;;;1.06;100.00;98669.95;106660;1269;61281;-81
2023/02/01 17:53:13;;;;;;;33.10;26.10;;;;;;;1.13;100.00;98666.31;106784;1269;72570;-72
2023/02/01 17:55:44;;;;;;;30.00;23.90;;;;;;;1.21;100.00;98660.77;106660;1269;68142;-84
2023/02/01 17:58:13;;;;;;;24.10;20.40;;;;;;;1.30;100.00;98662.21;106254;1269;549939;-81
2023/02/01 18:00:42;;;;;;;25.80;20.30;;;;;;;1.40;100.00;98659.11;107021;1266;63093;-77
2023/02/01 18:03:28;;;;;;;24.20;15.50;;;;;;;1.50;100.00;98660.27;106182;1266;60986;-83
2023/02/01 18:05:58;;;;;;;19.30;16.00;;;;;;;1.58;100.00;98659.98;107508;1257;71091;-80
2023/02/01 18:08:28;;;;;;;21.50;15.40;;;;;;;1.67;100.00;98659.04;107574;1255;68891;-84
2023/02/01 18:10:59;;;;;;;23.20;14.90;;;;;;;1.75;100.00;98659.41;107003;1255;72127;-80
2023/02/01 18:13:29;;;;;;;18.70;14.40;;;;;;;1.82;100.00;98659.48;106699;1257;60628;-81
2023/02/01 18:15:58;;;;;;;18.40;13.30;;;;;;;1.90;100.00;98660.98;106836;1256;60859;-80
2023/02/01 18:18:29;;;;;;;15.10;11.60;;;;;;;1.97;100.00;98663.40;107096;1256;73296;-77
2023/02/01 18:20:58;;;;;;;18.20;12.20;;;;;;;2.03;100.00;98663.38;106599;1257;69782;-77
2023/02/01 18:23:27;;;;;;;19.70;11.90;;;;;;;2.07;100.00;98657.14;106434;1257;74865;-77
2023/02/01 18:25:55;;;;;;;18.50;12.70;;;;;;;2.09;100.00;98661.40;106187;1260;59717;-78
2023/02/01 18:28:23;;;;;;;17.60;13.20;;;;;;;2.07;100.00;98662.39;106920;1257;60120;-83
2023/02/01 18:30:51;;;;;;;23.60;12.70;;;;;;;2.09;100.00;98666.70;107012;1257;72555;-81
2023/02/01 18:33:20;;;;;;;19.10;13.90;;;;;;;2.13;100.00;98668.86;106725;1260;68838;-81
2023/02/01 18:35:49;;;;;;;17.70;14.00;;;;;;;2.16;100.00;98669.92;106618;1257;72523;-78
2023/02/01 18:38:17;;;;;;;22.00;12.20;;;;;;;2.19;100.00;98669.90;106723;1256;62054;-80
2023/02/01 18:40:59;;;;;;;21.50;12.80;;;;;;;2.20;100.00;98670.98;106833;1257;59489;-80
2023/02/01 18:43:28;;;;;;;15.20;10.80;;;;;;;2.24;100.00;98668.83;106993;1257;73851;-81
2023/02/01 18:45:57;;;;;;;14.50;11.90;;;;;;;2.26;100.00;98671.84;106917;1256;68294;-80
2023/02/01 18:48:26;;;;;;;16.60;11.80;;;;;;;2.26;100.00;98674.88;106741;1257;71283;-78
2023/02/01 18:50:56;;;;;;;18.20;12.90;;;;;;;2.23;100.00;98675.73;106944;1257;62083;-79
2023/02/01 18:53:26;;;;;;;23.30;13.20;;;;;;;2.21;100.00;98674.62;107026;1255;61493;-83
2023/02/01 18:55:58;;;;;;;14.10;11.10;;;;;;;2.19;100.00;98670.88;106952;1255;75120;-81
2023/02/01 18:58:26;;;;;;;20.30;11.70;;;;;;;2.19;100.00;98673.45;106735;1256;67680;-78
2023/02/01 19:00:56;;;;;;;19.30;12.50;;;;;;;2.18;100.00;98673.82;106951;1257;73624;-82
2023/02/01 19:03:27;;;;;;;24.00;11.90;;;;;;;2.19;100.00;98668.96;106992;1257;60387;-78
2023/02/01 19:05:56;;;;;;;14.10;11.20;;;;;;;2.20;100.00;98667.77;107173;1256;60868;-79
2023/02/01 19:08:26;;;;;;;14.90;10.90;;;;;;;2.21;100.00;98673.56;106815;1256;72068;-81
2023/02/01 19:10:54;;;;;;;17.60;10.80;;;;;;;2.22;100.00;98668.80;106821;1260;67133;-79
2023/02/01 19:13:24;;;;;;;12.50;10.80;;;;;;;2.21;100.00;98670.15;106713;1257;74587;-80
2023/02/01 19:15:55;;;;;;;17.60;11.20;;;;;;;2.19;100.00;98673.45;106797;1255;61673;-79
2023/02/01 19:18:23;;;;;;;19.60;11.10;;;;;;;2.18;100.00;98663.66;105693;1256;59858;-75
2023/02/01 19:20:53;;;;;;;16.00;11.00;;;;;;;2.18;100.00;98662.19;105756;1257;74895;-80
2023/02/01 19:23:22;;;;;;;15.20;10.50;;;;;;;2.21;100.00;98667.46;105524;1257;67917;-77
2023/02/01 19:25:51;;;;;;;18.70;10.30;;;;;;;2.23;100.00;98667.16;105668;1257;72713;-76
2023/02/01 19:28:19;;;;;;;13.60;9.80;;;;;;;2.24;100.00;98663.77;105878;1259;60882;-78
2023/02/01 19:30:47;;;;;;;17.70;11.80;;;;;;;2.23;100.00;98668.22;105658;1256;60118;-75
2023/02/01 19:33:16;;;;;;;18.90;10.50;;;;;;;2.20;100.00;98662.87;105721;1259;73362;-77
2023/02/01 19:35:44;;;;;;;23.80;14.10;;;;;;;2.18;100.00;98660.23;105840;1255;68768;-77
2023/02/01 19:38:13;;;;;;;22.30;12.00;;;;;;;2.20;100.00;98662.02;105887;1257;73607;-75
2023/02/01 19:40:42;;;;;;;14.10;10.80;;;;;;;2.22;100.00;98662.07;105728;1259;59899;-75
2023/02/01 19:43:10;;;;;;;24.60;11.50;;;;;;;2.25;100.00;98662.00;105865;1261;60153;-76
2023/02/01 19:45:39;;;;;;;16.30;9.30;;;;;;;2.28;100.00;98658.13;105917;1257;71425;-74
2023/02/01 19:48:11;;;;;;;12.80;10.50;;;;;;;2.33;100.00;98659.75;105514;1256;70052;-77